createdAt,value
2018-12-18T00:00:42.770Z,3.68
2018-12-18T00:01:42.693Z,3.69
2018-12-18T00:02:42.607Z,3.69
2018-12-18T00:03:42.519Z,3.70
2018-12-18T00:04:42.431Z,3.73
2018-12-18T00:05:42.343Z,3.70
2018-12-18T00:06:42.258Z,3.78
2018-12-18T00:07:42.182Z,3.75
2018-12-18T00:08:42.082Z,3.78
2018-12-18T00:09:41.995Z,3.79
2018-12-18T00:10:41.913Z,3.75
2018-12-18T00:11:41.832Z,3.90
2018-12-18T00:12:41.745Z,3.86
2018-12-18T00:13:41.659Z,3.76
2018-12-18T00:14:41.570Z,3.75
2018-12-18T00:15:41.483Z,3.76
2018-12-18T00:16:41.395Z,3.70
2018-12-18T00:17:41.313Z,3.78
2018-12-18T00:18:41.220Z,3.76
2018-12-18T00:19:41.133Z,3.76
2018-12-18T00:20:41.060Z,3.76
2018-12-18T00:21:40.983Z,3.76
2018-12-18T00:22:40.883Z,3.75
2018-12-18T00:23:40.800Z,3.69
2018-12-18T00:24:40.713Z,3.78
2018-12-18T00:25:40.620Z,3.62
2018-12-18T00:26:40.534Z,3.78
2018-12-18T00:27:40.448Z,3.68
2018-12-18T00:28:40.372Z,3.66
2018-12-18T00:29:40.285Z,3.66
2018-12-18T00:30:40.196Z,3.66
2018-12-18T00:31:40.109Z,3.66
2018-12-18T00:32:40.021Z,3.60
2018-12-18T00:33:45.890Z,3.76
2018-12-18T00:34:39.847Z,3.84
2018-12-18T00:35:39.761Z,3.69
2018-12-18T00:36:39.672Z,3.69
2018-12-18T00:37:39.585Z,3.70
2018-12-18T00:38:39.498Z,3.66
2018-12-18T00:39:39.422Z,3.79
2018-12-18T00:40:39.335Z,3.70
2018-12-18T00:41:39.246Z,3.65
2018-12-18T00:42:39.162Z,3.83
2018-12-18T00:43:39.073Z,3.69
2018-12-18T00:44:38.986Z,3.72
2018-12-18T00:45:38.897Z,3.73
2018-12-18T00:46:38.811Z,3.70
2018-12-18T00:47:38.723Z,3.75
2018-12-18T00:48:38.649Z,3.80
2018-12-18T00:49:38.562Z,3.79
2018-12-18T00:50:38.485Z,3.75
2018-12-18T00:51:38.389Z,3.84
2018-12-18T00:52:38.298Z,3.76
2018-12-18T00:53:38.214Z,3.78
2018-12-18T00:54:38.125Z,3.72
2018-12-18T00:55:38.037Z,3.68
2018-12-18T00:56:37.949Z,3.76
2018-12-18T00:57:37.875Z,3.70
2018-12-18T00:58:37.787Z,3.69
2018-12-18T00:59:37.700Z,3.70
2018-12-18T01:00:37.616Z,3.78
2018-12-18T01:01:37.524Z,3.76
2018-12-18T01:02:37.438Z,3.75
2018-12-18T01:03:37.354Z,3.78
2018-12-18T01:04:37.263Z,3.69
2018-12-18T01:05:37.191Z,3.70
2018-12-18T01:06:37.089Z,3.84
2018-12-18T01:07:37.018Z,3.84
2018-12-18T01:08:36.926Z,3.73
2018-12-18T01:09:36.839Z,3.75
2018-12-18T01:10:36.751Z,3.84
2018-12-18T01:11:36.663Z,3.96
2018-12-18T01:12:36.611Z,3.88
2018-12-18T01:13:36.489Z,3.90
2018-12-18T01:14:36.401Z,3.94
2018-12-18T01:15:36.316Z,3.96
2018-12-18T01:16:36.239Z,3.91
2018-12-18T01:17:36.151Z,3.87
2018-12-18T01:18:36.064Z,3.86
2018-12-18T01:19:35.977Z,3.80
2018-12-18T01:20:35.890Z,3.83
2018-12-18T01:21:35.808Z,3.73
2018-12-18T01:22:35.715Z,3.75
2018-12-18T01:23:35.627Z,3.87
2018-12-18T01:24:35.540Z,3.80
2018-12-18T01:25:35.466Z,3.84
2018-12-18T01:26:35.377Z,3.84
2018-12-18T01:27:35.291Z,3.87
2018-12-18T01:28:35.203Z,3.93
2018-12-18T01:29:35.116Z,3.84
2018-12-18T01:30:35.027Z,3.91
2018-12-18T01:31:34.942Z,3.88
2018-12-18T01:32:34.854Z,3.86
2018-12-18T01:33:34.778Z,3.84
2018-12-18T01:34:34.680Z,3.84
2018-12-18T01:35:34.616Z,3.96
2018-12-18T01:36:34.518Z,4.00
2018-12-18T01:37:34.429Z,4.02
2018-12-18T01:38:34.342Z,3.88
2018-12-18T01:39:34.255Z,3.93
2018-12-18T01:40:34.169Z,3.97
2018-12-18T01:41:34.080Z,3.88
2018-12-18T01:42:33.994Z,3.90
2018-12-18T01:43:33.906Z,3.96
2018-12-18T01:44:33.830Z,3.96
2018-12-18T01:45:33.748Z,4.04
2018-12-18T01:46:33.655Z,3.93
2018-12-18T01:47:33.568Z,3.91
2018-12-18T01:48:33.480Z,3.98
2018-12-18T01:49:33.402Z,3.96
2018-12-18T01:50:33.307Z,4.02
2018-12-18T01:51:33.219Z,4.05
2018-12-18T01:52:33.144Z,3.97
2018-12-18T01:53:33.069Z,4.04
2018-12-18T01:54:32.976Z,4.00
2018-12-18T01:55:32.881Z,3.94
2018-12-18T01:56:32.797Z,3.94
2018-12-18T01:57:32.707Z,3.97
2018-12-18T01:58:32.620Z,4.05
2018-12-18T01:59:32.545Z,4.11
2018-12-18T02:00:32.458Z,4.16
2018-12-18T02:01:32.370Z,4.06
2018-12-18T02:02:32.282Z,4.14
2018-12-18T02:03:32.199Z,4.16
2018-12-18T02:04:32.111Z,4.14
2018-12-18T02:05:32.021Z,4.12
2018-12-18T02:06:31.933Z,4.11
2018-12-18T02:07:31.857Z,4.14
2018-12-18T02:08:31.770Z,4.12
2018-12-18T02:09:31.696Z,4.16
2018-12-18T02:10:31.599Z,4.32
2018-12-18T02:11:31.509Z,4.12
2018-12-18T02:12:31.428Z,4.14
2018-12-18T02:13:31.333Z,4.15
2018-12-18T02:14:31.258Z,4.30
2018-12-18T02:15:31.159Z,4.15
2018-12-18T02:16:31.097Z,4.16
2018-12-18T02:17:30.998Z,4.26
2018-12-18T02:18:30.909Z,4.22
2018-12-18T02:19:30.823Z,4.34
2018-12-18T02:20:30.735Z,4.23
2018-12-18T02:21:30.659Z,4.18
2018-12-18T02:22:30.560Z,4.26
2018-12-18T02:23:30.473Z,4.26
2018-12-18T02:24:30.397Z,4.22
2018-12-18T02:25:30.310Z,4.34
2018-12-18T02:26:30.224Z,4.27
2018-12-18T02:27:30.137Z,4.30
2018-12-18T02:28:30.060Z,4.32
2018-12-18T02:29:29.972Z,4.36
2018-12-18T02:30:29.874Z,4.27
2018-12-18T02:31:29.799Z,4.32
2018-12-18T02:32:29.712Z,4.33
2018-12-18T02:33:29.625Z,4.33
2018-12-18T02:34:29.535Z,4.36
2018-12-18T02:35:29.461Z,4.41
2018-12-18T02:36:29.363Z,4.33
2018-12-18T02:37:29.286Z,4.44
2018-12-18T02:38:29.199Z,4.34
2018-12-18T02:39:29.111Z,4.44
2018-12-18T02:40:29.024Z,4.34
2018-12-18T02:41:28.936Z,4.33
2018-12-18T02:42:28.861Z,4.29
2018-12-18T02:43:28.761Z,4.24
2018-12-18T02:44:28.700Z,4.33
2018-12-18T02:45:28.601Z,4.33
2018-12-18T02:46:28.512Z,4.26
2018-12-18T02:47:28.425Z,4.32
2018-12-18T02:48:28.339Z,4.26
2018-12-18T02:49:28.262Z,4.33
2018-12-18T02:50:28.164Z,4.24
2018-12-18T02:51:28.104Z,4.24
2018-12-18T02:52:28.004Z,4.27
2018-12-18T02:53:27.913Z,4.37
2018-12-18T02:54:27.826Z,4.33
2018-12-18T02:55:27.742Z,4.27
2018-12-18T02:56:27.652Z,4.30
2018-12-18T02:57:27.563Z,4.33
2018-12-18T02:58:27.479Z,4.30
2018-12-18T02:59:27.411Z,4.27
2018-12-18T03:00:27.313Z,4.26
2018-12-18T03:01:27.227Z,4.29
2018-12-18T03:02:27.139Z,4.23
2018-12-18T03:03:27.063Z,4.26
2018-12-18T03:04:26.966Z,4.29
2018-12-18T03:05:26.877Z,4.37
2018-12-18T03:06:26.791Z,4.41
2018-12-18T03:07:26.714Z,4.36
2018-12-18T03:08:26.628Z,4.45
2018-12-18T03:09:26.540Z,4.42
2018-12-18T03:10:26.454Z,4.40
2018-12-18T03:11:26.366Z,4.40
2018-12-18T03:12:26.283Z,4.45
2018-12-18T03:13:26.192Z,4.42
2018-12-18T03:14:26.115Z,4.45
2018-12-18T03:15:26.029Z,4.51
2018-12-18T03:16:25.962Z,4.52
2018-12-18T03:17:25.855Z,4.50
2018-12-18T03:18:25.766Z,4.41
2018-12-18T03:19:25.684Z,4.48
2018-12-18T03:20:25.593Z,4.50
2018-12-18T03:21:25.516Z,4.52
2018-12-18T03:22:25.430Z,4.50
2018-12-18T03:23:25.357Z,4.48
2018-12-18T03:24:25.256Z,4.48
2018-12-18T03:25:25.167Z,4.45
2018-12-18T03:26:25.085Z,4.47
2018-12-18T03:27:24.992Z,4.44
2018-12-18T03:28:24.907Z,4.42
2018-12-18T03:29:24.833Z,4.44
2018-12-18T03:30:24.757Z,4.40
2018-12-18T03:31:24.665Z,4.42
2018-12-18T03:32:24.569Z,4.45
2018-12-18T03:33:24.487Z,4.40
2018-12-18T03:34:28.216Z,4.44
2018-12-18T03:35:24.305Z,4.47
2018-12-18T03:36:24.219Z,4.40
2018-12-18T03:37:24.155Z,4.34
2018-12-18T03:38:24.056Z,4.34
2018-12-18T03:39:23.968Z,4.36
2018-12-18T03:40:23.886Z,4.34
2018-12-18T03:41:23.795Z,4.36
2018-12-18T03:42:23.807Z,4.36
2018-12-18T03:43:23.619Z,4.33
2018-12-18T03:44:23.556Z,4.37
2018-12-18T03:45:23.456Z,4.37
2018-12-18T03:46:23.368Z,4.42
2018-12-18T03:47:23.285Z,4.37
2018-12-18T03:48:23.193Z,4.36
2018-12-18T03:49:23.106Z,4.42
2018-12-18T03:50:23.018Z,4.37
2018-12-18T03:51:22.932Z,4.40
2018-12-18T03:52:22.857Z,4.40
2018-12-18T03:53:22.769Z,4.33
2018-12-18T03:54:22.687Z,4.34
2018-12-18T03:55:22.594Z,4.44
2018-12-18T03:56:22.508Z,4.42
2018-12-18T03:57:22.419Z,4.34
2018-12-18T03:58:22.333Z,4.37
2018-12-18T03:59:22.258Z,4.40
2018-12-18T04:00:22.173Z,4.32
2018-12-18T04:01:22.090Z,4.37
2018-12-18T04:02:21.995Z,4.34
2018-12-18T04:03:21.908Z,4.37
2018-12-18T04:04:21.820Z,4.44
2018-12-18T04:05:21.735Z,4.32
2018-12-18T04:06:21.653Z,4.36
2018-12-18T04:07:21.559Z,4.50
2018-12-18T04:08:21.487Z,4.44
2018-12-18T04:09:21.396Z,4.44
2018-12-18T04:10:21.309Z,4.41
2018-12-18T04:11:21.222Z,4.44
2018-12-18T04:12:21.134Z,4.41
2018-12-18T04:13:21.047Z,4.41
2018-12-18T04:14:20.961Z,4.36
2018-12-18T04:15:20.886Z,4.44
2018-12-18T04:16:20.799Z,4.44
2018-12-18T04:17:20.712Z,4.42
2018-12-18T04:18:20.622Z,4.40
2018-12-18T04:19:20.535Z,4.42
2018-12-18T04:20:20.449Z,4.36
2018-12-18T04:21:20.361Z,4.40
2018-12-18T04:22:20.283Z,4.37
2018-12-18T04:23:20.206Z,4.29
2018-12-18T04:24:20.114Z,4.32
2018-12-18T04:25:20.024Z,4.41
2018-12-18T04:26:19.936Z,4.34
2018-12-18T04:27:19.848Z,4.33
2018-12-18T04:28:19.762Z,4.34
2018-12-18T04:29:19.688Z,4.33
2018-12-18T04:30:19.598Z,4.36
2018-12-18T04:31:19.516Z,4.37
2018-12-18T04:32:19.424Z,4.40
2018-12-18T04:33:19.336Z,4.37
2018-12-18T04:34:19.250Z,4.34
2018-12-18T04:35:19.162Z,4.32
2018-12-18T04:36:19.084Z,4.41
2018-12-18T04:37:18.999Z,4.42
2018-12-18T04:38:18.913Z,4.36
2018-12-18T04:39:18.828Z,4.26
2018-12-18T04:40:18.741Z,4.24
2018-12-18T04:41:18.650Z,4.26
2018-12-18T04:42:18.563Z,4.34
2018-12-18T04:43:18.476Z,4.26
2018-12-18T04:44:18.388Z,4.23
2018-12-18T04:45:18.314Z,4.24
2018-12-18T04:46:18.227Z,4.22
2018-12-18T04:47:18.140Z,4.30
2018-12-18T04:48:18.051Z,4.30
2018-12-18T04:49:17.964Z,4.30
2018-12-18T04:50:17.890Z,4.29
2018-12-18T04:51:17.790Z,4.32
2018-12-18T04:52:17.703Z,4.32
2018-12-18T04:53:17.626Z,4.33
2018-12-18T04:54:17.541Z,4.30
2018-12-18T04:55:17.460Z,4.34
2018-12-18T04:56:17.366Z,4.29
2018-12-18T04:57:17.289Z,4.26
2018-12-18T04:58:17.191Z,4.40
2018-12-18T04:59:17.102Z,4.32
2018-12-18T05:00:17.016Z,4.36
2018-12-18T05:01:16.941Z,4.36
2018-12-18T05:02:16.852Z,4.36
2018-12-18T05:03:16.765Z,4.30
2018-12-18T05:04:16.678Z,4.36
2018-12-18T05:05:16.593Z,4.44
2018-12-18T05:06:16.504Z,4.34
2018-12-18T05:07:16.416Z,4.41
2018-12-18T05:08:16.343Z,4.41
2018-12-18T05:09:16.258Z,4.44
2018-12-18T05:10:16.167Z,4.41
2018-12-18T05:11:16.078Z,4.37
2018-12-18T05:12:15.992Z,4.36
2018-12-18T05:13:15.907Z,4.41
2018-12-18T05:14:15.822Z,4.41
2018-12-18T05:15:15.729Z,4.41
2018-12-18T05:16:15.656Z,4.34
2018-12-18T05:17:15.568Z,4.45
2018-12-18T05:18:15.491Z,4.41
2018-12-18T05:19:15.395Z,4.45
2018-12-18T05:20:15.304Z,4.36
2018-12-18T05:21:15.219Z,4.41
2018-12-18T05:22:15.134Z,4.36
2018-12-18T05:23:15.044Z,4.37
2018-12-18T05:24:14.956Z,4.45
2018-12-18T05:25:14.882Z,4.48
2018-12-18T05:26:14.793Z,4.42
2018-12-18T05:27:14.706Z,4.36
2018-12-18T05:28:16.193Z,4.45
2018-12-18T05:29:14.543Z,4.52
2018-12-18T05:30:14.445Z,4.44
2018-12-18T05:31:14.358Z,4.44
2018-12-18T05:32:14.282Z,4.50
2018-12-18T05:33:14.194Z,4.51
2018-12-18T05:34:14.167Z,4.54
2018-12-18T05:35:14.021Z,4.55
2018-12-18T05:36:13.933Z,4.50
2018-12-18T05:37:13.845Z,4.51
2018-12-18T05:38:13.759Z,4.50
2018-12-18T05:39:13.672Z,4.54
2018-12-18T05:40:13.584Z,4.59
2018-12-18T05:41:13.507Z,4.55
2018-12-18T05:42:13.420Z,4.60
2018-12-18T05:43:13.332Z,4.63
2018-12-18T05:44:13.246Z,4.67
2018-12-18T05:45:13.171Z,4.59
2018-12-18T05:46:13.073Z,4.59
2018-12-18T05:47:12.984Z,4.62
2018-12-18T05:48:12.908Z,4.65
2018-12-18T05:49:12.821Z,4.59
2018-12-18T05:50:12.733Z,4.66
2018-12-18T05:51:12.646Z,4.58
2018-12-18T05:52:12.559Z,4.69
2018-12-18T05:53:12.532Z,4.70
2018-12-18T05:54:12.383Z,4.70
2018-12-18T05:55:12.297Z,4.63
2018-12-18T05:56:12.222Z,4.65
2018-12-18T05:57:12.134Z,4.69
2018-12-18T05:58:12.048Z,4.78
2018-12-18T05:59:11.972Z,4.75
2018-12-18T06:00:11.873Z,4.67
2018-12-18T06:01:11.784Z,4.77
2018-12-18T06:02:11.698Z,4.75
2018-12-18T06:03:11.622Z,4.75
2018-12-18T06:04:11.535Z,4.85
2018-12-18T06:05:11.455Z,4.70
2018-12-18T06:06:11.360Z,4.69
2018-12-18T06:07:11.275Z,4.70
2018-12-18T06:08:11.187Z,4.78
2018-12-18T06:09:11.098Z,4.72
2018-12-18T06:10:11.012Z,4.72
2018-12-18T06:11:10.936Z,4.92
2018-12-18T06:12:10.849Z,4.78
2018-12-18T06:13:10.761Z,4.86
2018-12-18T06:14:10.674Z,4.80
2018-12-18T06:15:10.587Z,4.78
2018-12-18T06:16:10.511Z,4.80
2018-12-18T06:17:10.424Z,4.80
2018-12-18T06:18:10.350Z,4.84
2018-12-18T06:19:10.249Z,4.85
2018-12-18T06:20:10.163Z,4.82
2018-12-18T06:21:10.080Z,4.85
2018-12-18T06:22:09.986Z,4.85
2018-12-18T06:23:09.900Z,4.80
2018-12-18T06:24:09.830Z,4.85
2018-12-18T06:25:09.738Z,4.78
2018-12-18T06:26:09.650Z,4.84
2018-12-18T06:27:09.565Z,4.85
2018-12-18T06:28:09.475Z,4.89
2018-12-18T06:29:09.403Z,4.85
2018-12-18T06:30:09.302Z,4.82
2018-12-18T06:31:09.231Z,4.88
2018-12-18T06:32:09.138Z,4.86
2018-12-18T06:33:09.051Z,4.82
2018-12-18T06:34:08.963Z,4.85
2018-12-18T06:35:10.379Z,4.82
2018-12-18T06:36:08.790Z,4.86
2018-12-18T06:37:08.713Z,4.85
2018-12-18T06:38:08.630Z,4.82
2018-12-18T06:39:08.539Z,4.88
2018-12-18T06:40:08.451Z,4.82
2018-12-18T06:41:08.368Z,4.91
2018-12-18T06:42:08.289Z,4.82
2018-12-18T06:43:08.191Z,4.86
2018-12-18T06:44:08.126Z,4.91
2018-12-18T06:45:08.028Z,4.85
2018-12-18T06:46:07.939Z,4.84
2018-12-18T06:47:07.856Z,4.86
2018-12-18T06:48:07.764Z,4.96
2018-12-18T06:49:07.690Z,4.91
2018-12-18T06:50:07.602Z,4.86
2018-12-18T06:51:07.528Z,4.97
2018-12-18T06:52:07.427Z,4.92
2018-12-18T06:53:07.340Z,4.94
2018-12-18T06:54:07.253Z,4.97
2018-12-18T06:55:07.165Z,4.97
2018-12-18T06:56:07.090Z,4.92
2018-12-18T06:57:07.003Z,4.91
2018-12-18T06:58:06.916Z,4.96
2018-12-18T06:59:06.831Z,4.91
2018-12-18T07:00:06.741Z,4.89
2018-12-18T07:01:06.655Z,4.86
2018-12-18T07:02:06.569Z,4.88
2018-12-18T07:03:06.537Z,4.97
2018-12-18T07:04:06.404Z,4.88
2018-12-18T07:05:06.316Z,4.96
2018-12-18T07:06:06.230Z,4.92
2018-12-18T07:07:06.142Z,4.91
2018-12-18T07:08:06.055Z,5.04
2018-12-18T07:09:05.981Z,4.94
2018-12-18T07:10:05.894Z,4.92
2018-12-18T07:11:05.806Z,4.97
2018-12-18T07:12:05.717Z,4.96
2018-12-18T07:13:05.633Z,5.00
2018-12-18T07:14:05.545Z,5.02
2018-12-18T07:15:05.467Z,4.94
2018-12-18T07:16:05.380Z,5.00
2018-12-18T07:17:05.294Z,4.97
2018-12-18T07:18:05.206Z,4.99
2018-12-18T07:19:05.124Z,4.91
2018-12-18T07:20:05.032Z,4.92
2018-12-18T07:21:04.945Z,4.96
2018-12-18T07:22:04.869Z,4.97
2018-12-18T07:23:04.782Z,4.97
2018-12-18T07:24:04.694Z,4.96
2018-12-18T07:25:04.607Z,5.03
2018-12-18T07:26:04.519Z,5.07
2018-12-18T07:27:04.433Z,4.94
2018-12-18T07:28:04.357Z,4.96
2018-12-18T07:29:04.270Z,5.03
2018-12-18T07:30:04.183Z,4.94
2018-12-18T07:31:04.095Z,4.99
2018-12-18T07:32:04.044Z,5.06
2018-12-18T07:33:03.934Z,4.97
2018-12-18T07:34:03.845Z,4.99
2018-12-18T07:35:03.759Z,5.03
2018-12-18T07:36:03.669Z,4.99
2018-12-18T07:37:03.586Z,4.99
2018-12-18T07:38:03.500Z,4.94
2018-12-18T07:39:03.409Z,5.03
2018-12-18T07:40:03.322Z,5.06
2018-12-18T07:41:03.245Z,5.02
2018-12-18T07:42:03.158Z,5.07
2018-12-18T07:43:03.084Z,5.06
2018-12-18T07:44:02.985Z,4.99
2018-12-18T07:45:02.897Z,5.07
2018-12-18T07:46:02.814Z,5.12
2018-12-18T07:47:02.735Z,5.06
2018-12-18T07:48:02.647Z,5.02
2018-12-18T07:49:02.561Z,5.07
2018-12-18T07:50:02.484Z,5.02
2018-12-18T07:51:02.386Z,5.04
2018-12-18T07:52:02.297Z,5.04
2018-12-18T07:53:02.222Z,5.06
2018-12-18T07:54:02.136Z,5.04
2018-12-18T07:55:02.048Z,5.06
2018-12-18T07:56:01.961Z,5.02
2018-12-18T07:57:01.875Z,5.03
2018-12-18T07:58:01.786Z,5.09
2018-12-18T07:59:01.711Z,5.10
2018-12-18T08:00:01.626Z,5.15
2018-12-18T08:01:01.540Z,5.12
2018-12-18T08:02:01.448Z,5.09
2018-12-18T08:03:01.374Z,5.13
2018-12-18T08:04:01.274Z,5.17
2018-12-18T08:05:01.189Z,5.12
2018-12-18T08:06:01.112Z,5.15
2018-12-18T08:07:01.024Z,5.17
2018-12-18T08:08:00.937Z,5.30
2018-12-18T08:09:00.849Z,5.27
2018-12-18T08:10:00.762Z,5.27
2018-12-18T08:11:00.676Z,5.28
2018-12-18T08:12:00.599Z,5.24
2018-12-18T08:13:00.512Z,5.25
2018-12-18T08:14:00.424Z,5.20
2018-12-18T08:15:00.338Z,5.22
2018-12-18T08:16:00.252Z,5.20
2018-12-18T08:17:00.162Z,5.20
2018-12-18T08:18:00.076Z,5.21
2018-12-18T08:19:00.000Z,5.28
2018-12-18T08:19:59.912Z,5.31
2018-12-18T08:20:59.825Z,5.15
2018-12-18T08:21:59.740Z,5.30
2018-12-18T08:22:59.651Z,5.20
2018-12-18T08:23:59.564Z,5.28
2018-12-18T08:24:59.489Z,5.28
2018-12-18T08:25:59.404Z,5.21
2018-12-18T08:26:59.313Z,5.24
2018-12-18T08:27:59.225Z,5.28
2018-12-18T08:28:59.139Z,5.15
2018-12-18T08:29:59.052Z,5.17
2018-12-18T08:30:58.977Z,5.17
2018-12-18T08:31:58.889Z,5.24
2018-12-18T08:32:58.803Z,5.22
2018-12-18T08:33:58.715Z,5.20
2018-12-18T08:34:58.626Z,5.24
2018-12-18T08:35:58.540Z,5.24
2018-12-18T08:36:58.465Z,5.30
2018-12-18T08:37:58.377Z,5.31
2018-12-18T08:38:58.292Z,5.35
2018-12-18T08:39:58.202Z,5.31
2018-12-18T08:40:58.118Z,5.27
2018-12-18T08:41:58.027Z,5.35
2018-12-18T08:42:57.953Z,5.35
2018-12-18T08:43:57.866Z,5.36
2018-12-18T08:44:57.783Z,5.31
2018-12-18T08:45:57.691Z,5.40
2018-12-18T08:46:57.604Z,5.39
2018-12-18T08:47:57.517Z,5.40
2018-12-18T08:48:57.443Z,5.38
2018-12-18T08:49:57.354Z,5.33
2018-12-18T08:50:57.267Z,5.40
2018-12-18T08:51:57.191Z,5.40
2018-12-18T08:52:57.092Z,5.39
2018-12-18T08:53:57.069Z,5.45
2018-12-18T08:54:56.931Z,5.35
2018-12-18T08:55:56.842Z,5.45
2018-12-18T08:56:56.754Z,5.54
2018-12-18T08:57:56.667Z,5.49
2018-12-18T08:58:56.592Z,5.56
2018-12-18T08:59:56.504Z,5.48
2018-12-18T09:00:56.417Z,5.56
2018-12-18T09:01:56.329Z,5.57
2018-12-18T09:02:56.242Z,5.53
2018-12-18T09:03:56.158Z,5.48
2018-12-18T09:04:56.079Z,5.58
2018-12-18T09:05:55.993Z,5.60
2018-12-18T09:06:55.904Z,5.58
2018-12-18T09:07:55.818Z,5.60
2018-12-18T09:08:55.743Z,5.57
2018-12-18T09:09:55.643Z,5.64
2018-12-18T09:10:55.573Z,5.65
2018-12-18T09:11:55.480Z,5.51
2018-12-18T09:12:55.394Z,5.60
2018-12-18T09:13:55.305Z,5.64
2018-12-18T09:14:55.219Z,5.60
2018-12-18T09:15:55.144Z,5.67
2018-12-18T09:16:55.060Z,5.67
2018-12-18T09:17:54.970Z,5.72
2018-12-18T09:18:54.881Z,5.75
2018-12-18T09:19:54.794Z,5.75
2018-12-18T09:20:54.719Z,5.82
2018-12-18T09:21:54.631Z,5.82
2018-12-18T09:22:54.544Z,5.79
2018-12-18T09:23:54.459Z,5.83
2018-12-18T09:24:54.382Z,5.83
2018-12-18T09:25:54.294Z,5.85
2018-12-18T09:26:54.207Z,5.90
2018-12-18T09:27:54.120Z,5.94
2018-12-18T09:28:54.044Z,5.97
2018-12-18T09:29:53.956Z,5.93
2018-12-18T09:30:53.877Z,5.89
2018-12-18T09:31:53.782Z,5.86
2018-12-18T09:32:53.698Z,5.78
2018-12-18T09:33:53.608Z,5.83
2018-12-18T09:34:53.547Z,5.93
2018-12-18T09:35:53.446Z,5.89
2018-12-18T09:36:53.357Z,5.83
2018-12-18T09:37:53.278Z,5.93
2018-12-18T09:38:53.184Z,5.93
2018-12-18T09:39:53.108Z,5.86
2018-12-18T09:40:53.021Z,5.89
2018-12-18T09:41:52.949Z,5.83
2018-12-18T09:42:52.847Z,5.91
2018-12-18T09:43:52.771Z,5.89
2018-12-18T09:44:52.683Z,5.93
2018-12-18T09:45:52.598Z,6.04
2018-12-18T09:46:52.509Z,5.86
2018-12-18T09:47:52.422Z,5.93
2018-12-18T09:48:52.347Z,5.96
2018-12-18T09:49:52.259Z,6.08
2018-12-18T09:50:52.173Z,6.08
2018-12-18T09:51:52.084Z,6.08
2018-12-18T09:52:51.998Z,6.09
2018-12-18T09:53:51.922Z,6.09
2018-12-18T09:54:51.834Z,6.14
2018-12-18T09:55:51.747Z,6.12
2018-12-18T09:56:51.673Z,6.14
2018-12-18T09:57:51.584Z,5.99
2018-12-18T09:58:51.498Z,6.04
2018-12-18T09:59:51.410Z,6.09
2018-12-18T10:00:51.337Z,6.12
2018-12-18T10:01:51.235Z,6.14
2018-12-18T10:02:51.160Z,6.18
2018-12-18T10:03:51.074Z,6.22
2018-12-18T10:04:50.986Z,6.30
2018-12-18T10:05:56.139Z,6.28
2018-12-18T10:06:50.824Z,6.22
2018-12-18T10:07:50.736Z,6.28
2018-12-18T10:08:50.651Z,6.21
2018-12-18T10:09:50.561Z,6.34
2018-12-18T10:10:50.478Z,6.44
2018-12-18T10:11:50.400Z,6.41
2018-12-18T10:12:50.324Z,6.40
2018-12-18T10:13:50.229Z,6.36
2018-12-18T10:14:50.138Z,6.30
2018-12-18T10:15:50.062Z,6.43
2018-12-18T10:16:49.975Z,6.56
2018-12-18T10:17:49.887Z,6.51
2018-12-18T10:18:49.801Z,6.54
2018-12-18T10:19:49.726Z,6.48
2018-12-18T10:20:49.637Z,6.40
2018-12-18T10:21:49.558Z,6.46
2018-12-18T10:22:49.462Z,6.38
2018-12-18T10:23:49.388Z,6.43
2018-12-18T10:24:49.303Z,6.52
2018-12-18T10:25:49.226Z,6.48
2018-12-18T10:26:49.126Z,6.44
2018-12-18T10:27:49.053Z,6.44
2018-12-18T10:28:48.975Z,6.33
2018-12-18T10:29:48.877Z,6.38
2018-12-18T10:30:48.788Z,6.33
2018-12-18T10:31:48.727Z,6.40
2018-12-18T10:32:48.631Z,6.44
2018-12-18T10:33:48.541Z,6.51
2018-12-18T10:34:48.455Z,6.38
2018-12-18T10:35:48.377Z,6.36
2018-12-18T10:36:48.288Z,6.40
2018-12-18T10:37:48.203Z,6.31
2018-12-18T10:38:48.115Z,6.46
2018-12-18T10:39:48.038Z,6.59
2018-12-18T10:40:47.954Z,6.55
2018-12-18T10:41:47.864Z,6.61
2018-12-18T10:42:47.779Z,6.59
2018-12-18T10:43:47.704Z,6.59
2018-12-18T10:44:47.614Z,6.59
2018-12-18T10:45:47.528Z,6.58
2018-12-18T10:46:47.452Z,6.54
2018-12-18T10:47:47.365Z,6.59
2018-12-18T10:48:47.279Z,6.70
2018-12-18T10:49:47.190Z,6.76
2018-12-18T10:50:47.104Z,6.70
2018-12-18T10:51:47.029Z,6.71
2018-12-18T10:52:46.940Z,6.74
2018-12-18T10:53:46.854Z,6.80
2018-12-18T10:54:46.765Z,6.80
2018-12-18T10:55:46.690Z,6.64
2018-12-18T10:56:46.605Z,6.64
2018-12-18T10:57:46.516Z,6.54
2018-12-18T10:58:46.430Z,6.52
2018-12-18T10:59:46.355Z,6.61
2018-12-18T11:00:46.267Z,6.59
2018-12-18T11:01:46.180Z,6.71
2018-12-18T11:02:46.093Z,6.73
2018-12-18T11:03:46.017Z,6.77
2018-12-18T11:04:45.930Z,6.76
2018-12-18T11:05:45.843Z,6.74
2018-12-18T11:06:45.769Z,6.76
2018-12-18T11:07:45.682Z,6.67
2018-12-18T11:08:45.593Z,6.70
2018-12-18T11:09:45.518Z,6.80
2018-12-18T11:10:45.433Z,6.85
2018-12-18T11:11:45.356Z,6.89
2018-12-18T11:12:45.256Z,6.91
2018-12-18T11:13:45.168Z,6.79
2018-12-18T11:14:45.093Z,6.92
2018-12-18T11:15:45.007Z,7.09
2018-12-18T11:16:44.918Z,7.13
2018-12-18T11:17:44.834Z,7.13
2018-12-18T11:18:44.757Z,7.15
2018-12-18T11:19:44.669Z,6.98
2018-12-18T11:20:44.585Z,6.95
2018-12-18T11:21:44.507Z,7.05
2018-12-18T11:22:44.419Z,7.03
2018-12-18T11:23:44.337Z,6.99
2018-12-18T11:24:44.245Z,7.03
2018-12-18T11:25:44.173Z,7.12
2018-12-18T11:26:44.083Z,7.24
2018-12-18T11:27:43.997Z,7.31
2018-12-18T11:28:43.919Z,7.24
2018-12-18T11:29:43.834Z,7.31
2018-12-18T11:30:43.745Z,7.35
2018-12-18T11:31:43.677Z,7.34
2018-12-18T11:32:43.583Z,7.25
2018-12-18T11:33:43.495Z,7.25
2018-12-18T11:34:43.409Z,7.15
2018-12-18T11:35:43.334Z,7.10
2018-12-18T11:36:43.253Z,7.23
2018-12-18T11:37:43.162Z,7.28
2018-12-18T11:38:43.072Z,7.31
2018-12-18T11:39:43.000Z,7.37
2018-12-18T11:40:42.909Z,7.45
2018-12-18T11:41:42.834Z,7.50
2018-12-18T11:42:42.747Z,7.63
2018-12-18T11:43:42.659Z,7.57
2018-12-18T11:44:42.571Z,7.53
2018-12-18T11:45:42.496Z,7.57
2018-12-18T11:46:42.410Z,7.37
2018-12-18T11:47:42.322Z,7.32
2018-12-18T11:48:42.247Z,7.27
2018-12-18T11:49:42.160Z,7.15
2018-12-18T11:50:43.308Z,7.02
2018-12-18T11:51:41.986Z,7.06
2018-12-18T11:52:41.911Z,7.03
2018-12-18T11:53:41.824Z,7.06
2018-12-18T11:54:41.735Z,6.95
2018-12-18T11:55:41.661Z,6.99
2018-12-18T11:56:41.572Z,6.88
2018-12-18T11:57:41.486Z,6.89
2018-12-18T11:58:41.398Z,6.80
2018-12-18T11:59:41.325Z,6.84
2018-12-18T12:00:41.236Z,6.79
2018-12-18T12:01:41.148Z,6.79
2018-12-18T12:02:42.995Z,6.85
2018-12-18T12:03:40.987Z,6.76
2018-12-18T12:04:40.898Z,6.81
2018-12-18T12:05:40.812Z,6.79
2018-12-18T12:06:40.737Z,6.76
2018-12-18T12:07:40.649Z,6.79
2018-12-18T12:08:40.562Z,6.74
2018-12-18T12:09:40.475Z,6.76
2018-12-18T12:10:40.399Z,6.76
2018-12-18T12:11:40.415Z,6.81
2018-12-18T12:12:40.239Z,6.80
2018-12-18T12:13:40.149Z,6.79
2018-12-18T12:14:40.063Z,6.95
2018-12-18T12:15:39.984Z,7.15
2018-12-18T12:16:39.888Z,7.68
2018-12-18T12:17:39.812Z,7.92
2018-12-18T12:18:39.725Z,8.10
2018-12-18T12:19:39.638Z,8.34
2018-12-18T12:20:39.553Z,8.22
2018-12-18T12:21:39.475Z,8.11
2018-12-18T12:22:39.403Z,8.11
2018-12-18T12:23:39.306Z,8.04
2018-12-18T12:24:39.242Z,8.20
2018-12-18T12:25:39.139Z,8.23
2018-12-18T12:26:39.050Z,8.50
2018-12-18T12:27:38.976Z,8.73
2018-12-18T12:28:38.890Z,9.05
2018-12-18T12:29:38.801Z,8.95
2018-12-18T12:30:38.714Z,9.20
2018-12-18T12:31:38.639Z,9.26
2018-12-18T12:32:38.551Z,9.17
2018-12-18T12:33:38.466Z,9.14
2018-12-18T12:34:38.389Z,8.83
2018-12-18T12:35:38.304Z,8.96
2018-12-18T12:36:38.240Z,8.71
2018-12-18T12:37:38.140Z,8.74
2018-12-18T12:38:38.051Z,8.73
2018-12-18T12:39:37.977Z,8.59
2018-12-18T12:40:37.890Z,8.29
2018-12-18T12:41:37.802Z,8.37
2018-12-18T12:42:37.739Z,8.50
2018-12-18T12:43:37.641Z,8.59
2018-12-18T12:44:37.553Z,8.33
2018-12-18T12:45:37.477Z,8.23
2018-12-18T12:46:37.392Z,8.40
2018-12-18T12:47:37.304Z,8.55
2018-12-18T12:48:37.228Z,8.83
2018-12-18T12:49:37.141Z,8.70
2018-12-18T12:50:37.053Z,8.59
2018-12-18T12:51:36.978Z,8.70
2018-12-18T12:52:36.891Z,8.80
2018-12-18T12:53:36.804Z,9.18
2018-12-18T12:54:36.730Z,9.40
2018-12-18T12:55:36.641Z,9.60
2018-12-18T12:56:36.567Z,9.64
2018-12-18T12:57:36.478Z,9.43
2018-12-18T12:58:36.392Z,9.15
2018-12-18T12:59:36.316Z,8.59
2018-12-18T13:00:36.229Z,8.47
2018-12-18T13:01:41.950Z,8.20
2018-12-18T13:02:36.067Z,8.08
2018-12-18T13:03:35.978Z,8.25
2018-12-18T13:04:35.903Z,8.25
2018-12-18T13:05:35.818Z,8.28
2018-12-18T13:06:36.562Z,8.25
2018-12-18T13:07:35.654Z,8.22
2018-12-18T13:08:35.567Z,8.36
2018-12-18T13:09:35.481Z,8.28
2018-12-18T13:10:35.404Z,8.16
2018-12-18T13:11:35.317Z,8.22
2018-12-18T13:12:35.243Z,8.01
2018-12-18T13:13:35.155Z,8.00
2018-12-18T13:14:35.068Z,7.95
2018-12-18T13:15:34.994Z,7.87
2018-12-18T13:16:34.906Z,7.85
2018-12-18T13:17:34.828Z,7.89